Other Surface Observations
Issued by NWS Great Falls, MT

Home | Current Version | Previous Version | Text Only | Print | Product List | Glossary On
Versions: 1 2 3 4 5 6 7 8 9 10 11 12 13 14 15 16 17 18 19 20 21 22 23 24 25 26 27 28 29 30 31 32 33 34 35 36 37 38 39 40 41 42 43 44 45 46 47 48 49 50
000
SXUS55 KTFX 160821
OSOTFX

AREA AWOS OBSERVATIONS
NATIONAL WEATHER SERVICE GREAT FALLS MT
0220 AM MDT Wed Apr 16 2014

METAR K1S3 160815Z AUTO 26008KT 10SM 05/00 A2976
METAR K38S 160815Z AUTO 00000KT 10SM 01/M04 A3000
METAR K6S0 160815Z AUTO 21020G28KT 10SM 01/M01 A2989
METAR K6S5 160815Z AUTO 14008KT 10SM 04/M04 A3000
METAR K79S 160815Z AUTO 33004KT 04/M06 A2992
METAR K88M 160815Z AUTO 00000KT 10SM 01/M01 A2993
METAR KPO1 160815Z AUTO 03010KT 10SM M02/M06 A2984
METAR KPWD 160815Z AUTO 06011G16KT 10SM M03/M06 A2988
METAR KS59 160815Z AUTO 21003KT 10SM M02/M04 A2995



USA.gov is the U.S. government's official web portal to all federal, state and local government web resources and services.